createdAt,value
2022-08-26T00:02:00.466Z,20.00
2022-08-26T00:04:28.910Z,19.90
2022-08-26T00:06:57.403Z,20.00
2022-08-26T00:09:27.651Z,20.00
2022-08-26T00:11:56.291Z,20.00
2022-08-26T00:14:30.806Z,20.00
2022-08-26T00:16:59.933Z,20.10
2022-08-26T00:19:28.429Z,20.10
2022-08-26T00:21:56.561Z,20.20
2022-08-26T00:24:24.886Z,20.20
2022-08-26T00:26:54.692Z,20.20
2022-08-26T00:29:23.298Z,20.30
2022-08-26T00:31:52.128Z,20.20
2022-08-26T00:34:20.035Z,20.20
2022-08-26T00:36:50.878Z,20.20
2022-08-26T00:39:21.206Z,20.20
2022-08-26T00:41:50.539Z,20.10
2022-08-26T00:44:21.340Z,20.00
2022-08-26T00:46:52.732Z,19.90
2022-08-26T00:49:25.893Z,19.90
2022-08-26T00:51:56.722Z,19.80
2022-08-26T00:54:28.502Z,19.80
2022-08-26T00:57:00.060Z,19.70
2022-08-26T00:59:32.766Z,19.70
2022-08-26T01:02:02.895Z,19.60
2022-08-26T01:04:34.536Z,19.60
2022-08-26T01:07:03.641Z,19.60
2022-08-26T01:09:33.031Z,19.70
2022-08-26T01:12:04.072Z,19.80
2022-08-26T01:14:36.865Z,19.80
2022-08-26T01:17:07.584Z,19.90
2022-08-26T01:19:43.527Z,19.90
2022-08-26T01:22:17.671Z,19.90
2022-08-26T01:24:48.232Z,20.00
2022-08-26T01:27:20.638Z,20.00
2022-08-26T01:29:50.400Z,20.00
2022-08-26T01:32:23.393Z,20.00
2022-08-26T01:34:51.765Z,20.00
2022-08-26T01:37:23.160Z,20.00
2022-08-26T01:39:55.889Z,20.00
2022-08-26T01:42:27.430Z,20.00
2022-08-26T01:45:01.976Z,20.10
2022-08-26T01:47:32.895Z,20.10
2022-08-26T01:50:05.934Z,20.10
2022-08-26T01:52:37.158Z,20.00
2022-08-26T01:55:09.233Z,20.00
2022-08-26T01:57:38.154Z,20.10
2022-08-26T02:00:09.524Z,20.00
2022-08-26T02:02:38.043Z,20.00
2022-08-26T02:05:11.058Z,19.90
2022-08-26T02:07:40.493Z,19.90
2022-08-26T02:10:11.251Z,19.80
2022-08-26T02:12:40.284Z,19.80
2022-08-26T02:15:12.350Z,19.70
2022-08-26T02:17:43.984Z,19.70
2022-08-26T02:20:14.968Z,19.70
2022-08-26T02:22:45.215Z,19.70
2022-08-26T02:25:21.569Z,19.60
2022-08-26T02:27:52.227Z,19.60
2022-08-26T02:30:22.456Z,19.50
2022-08-26T02:32:51.847Z,19.50
2022-08-26T02:35:21.552Z,19.50
2022-08-26T02:37:51.191Z,19.50
2022-08-26T02:40:23.402Z,19.40
2022-08-26T02:42:53.128Z,19.30
2022-08-26T02:45:26.303Z,19.30
2022-08-26T02:47:54.649Z,19.30
2022-08-26T02:50:25.311Z,19.20
2022-08-26T02:52:53.703Z,19.20
2022-08-26T02:55:24.666Z,19.20
2022-08-26T02:57:53.197Z,19.20
2022-08-26T03:00:21.368Z,19.10
2022-08-26T03:02:50.375Z,19.20
2022-08-26T03:05:19.867Z,19.10
2022-08-26T03:07:48.129Z,19.10
2022-08-26T03:10:16.492Z,19.00
2022-08-26T03:12:47.491Z,19.00
2022-08-26T03:15:18.525Z,19.00
2022-08-26T03:17:47.268Z,18.90
2022-08-26T03:20:17.454Z,18.90
2022-08-26T03:22:46.651Z,18.90
2022-08-26T03:25:17.257Z,18.90
2022-08-26T03:27:46.944Z,18.90
2022-08-26T03:30:34.209Z,18.70
2022-08-26T03:33:02.517Z,18.90
2022-08-26T03:35:31.012Z,18.90
2022-08-26T03:37:59.201Z,18.80
2022-08-26T03:40:29.090Z,18.80
2022-08-26T03:42:59.108Z,18.70
2022-08-26T03:45:28.394Z,18.70
2022-08-26T03:47:57.864Z,18.70
2022-08-26T03:50:26.963Z,18.70
2022-08-26T03:52:56.121Z,18.70
2022-08-26T03:55:27.317Z,18.70
2022-08-26T03:57:55.866Z,18.70
2022-08-26T04:00:26.204Z,18.70
2022-08-26T04:02:54.251Z,18.70
2022-08-26T04:05:23.144Z,18.70
2022-08-26T04:07:52.257Z,18.60
2022-08-26T04:10:28.655Z,18.60
2022-08-26T04:12:58.856Z,18.60
2022-08-26T04:15:29.114Z,18.50
2022-08-26T04:17:57.727Z,18.50
2022-08-26T04:20:26.102Z,18.50
2022-08-26T04:22:54.391Z,18.40
2022-08-26T04:25:22.684Z,18.60
2022-08-26T04:27:52.622Z,18.60
2022-08-26T04:30:21.250Z,18.80
2022-08-26T04:32:50.816Z,18.70
2022-08-26T04:35:20.918Z,18.70
2022-08-26T04:37:53.465Z,18.70
2022-08-26T04:40:21.789Z,18.80
2022-08-26T04:42:50.353Z,18.80
2022-08-26T04:45:19.445Z,18.90
2022-08-26T04:47:56.421Z,18.90
2022-08-26T04:50:27.082Z,18.90
2022-08-26T04:52:55.423Z,19.00
2022-08-26T04:55:25.245Z,19.00
2022-08-26T04:58:08.815Z,19.00
2022-08-26T05:00:38.848Z,19.10
2022-08-26T05:03:10.250Z,19.10
2022-08-26T05:05:39.766Z,19.20
2022-08-26T05:08:07.893Z,19.30
2022-08-26T05:10:41.032Z,19.50
2022-08-26T05:13:11.050Z,19.60
2022-08-26T05:15:39.818Z,19.80
2022-08-26T05:18:11.193Z,19.90
2022-08-26T05:20:40.636Z,20.10
2022-08-26T05:23:09.159Z,20.30
2022-08-26T05:25:38.893Z,20.50
2022-08-26T05:28:08.186Z,20.70
2022-08-26T05:30:36.895Z,21.00
2022-08-26T05:33:05.349Z,21.20
2022-08-26T05:35:34.952Z,21.30
2022-08-26T05:38:08.272Z,21.30
2022-08-26T05:40:43.325Z,21.30
2022-08-26T05:43:13.448Z,21.30
2022-08-26T05:45:46.118Z,21.40
2022-08-26T05:48:15.217Z,21.40
2022-08-26T05:50:47.730Z,21.50
2022-08-26T05:53:17.984Z,21.60
2022-08-26T05:55:48.001Z,21.70
2022-08-26T05:58:17.504Z,21.80
2022-08-26T06:00:45.747Z,21.90
2022-08-26T06:03:14.059Z,22.00
2022-08-26T06:05:42.917Z,22.00
2022-08-26T06:08:14.828Z,22.10
2022-08-26T06:10:52.042Z,22.10
2022-08-26T06:13:21.772Z,22.20
2022-08-26T06:15:51.774Z,22.40
2022-08-26T06:18:22.146Z,22.60
2022-08-26T06:20:57.810Z,22.90
2022-08-26T06:23:46.465Z,22.90
2022-08-26T06:26:15.929Z,22.90
2022-08-26T06:28:45.814Z,22.90
2022-08-26T06:31:14.342Z,22.90
2022-08-26T06:33:43.373Z,23.00
2022-08-26T06:36:17.450Z,23.10
2022-08-26T06:38:48.823Z,23.10
2022-08-26T06:41:17.850Z,23.20
2022-08-26T06:43:46.066Z,23.20
2022-08-26T06:46:17.831Z,23.40
2022-08-26T06:48:46.818Z,23.50
2022-08-26T06:51:17.731Z,23.80
2022-08-26T06:53:48.306Z,23.90
2022-08-26T06:56:21.397Z,24.00
2022-08-26T06:58:49.998Z,24.00
2022-08-26T07:01:20.773Z,24.20
2022-08-26T07:03:50.747Z,24.40
2022-08-26T07:06:19.629Z,24.50
2022-08-26T07:08:47.739Z,24.50
2022-08-26T07:11:19.130Z,24.60
2022-08-26T07:13:47.988Z,24.70
2022-08-26T07:16:19.131Z,24.80
2022-08-26T07:18:48.550Z,24.90
2022-08-26T07:21:18.739Z,25.10
2022-08-26T07:23:48.363Z,25.20
2022-08-26T07:26:23.471Z,25.30
2022-08-26T07:28:54.669Z,25.50
2022-08-26T07:31:25.128Z,25.70
2022-08-26T07:33:54.259Z,25.90
2022-08-26T07:36:24.182Z,25.90
2022-08-26T07:38:52.780Z,26.00
2022-08-26T07:41:25.049Z,26.00
2022-08-26T07:43:54.061Z,26.00
2022-08-26T07:46:27.091Z,26.10
2022-08-26T07:48:59.108Z,26.20
2022-08-26T07:51:28.407Z,26.40
2022-08-26T07:53:56.537Z,26.50
2022-08-26T07:56:26.593Z,26.70
2022-08-26T07:58:55.081Z,26.90
2022-08-26T08:01:24.591Z,27.20
2022-08-26T08:03:54.821Z,27.30
2022-08-26T08:06:27.244Z,27.50
2022-08-26T08:08:55.570Z,27.70
2022-08-26T08:11:27.359Z,27.70
2022-08-26T08:13:56.905Z,27.90
2022-08-26T08:16:26.261Z,28.10
2022-08-26T08:18:54.667Z,28.30
2022-08-26T08:21:24.471Z,28.30
2022-08-26T08:23:53.904Z,28.20
2022-08-26T08:26:27.310Z,28.20
2022-08-26T08:28:57.612Z,28.40
2022-08-26T08:31:56.079Z,28.60
2022-08-26T08:34:16.524Z,28.80
2022-08-26T08:36:46.843Z,28.90
2022-08-26T08:39:15.301Z,29.00
2022-08-26T08:41:55.148Z,28.80
2022-08-26T08:47:05.230Z,29.00
2022-08-26T08:49:35.516Z,29.10
2022-08-26T08:52:11.416Z,29.10
2022-08-26T08:54:39.498Z,29.00
2022-08-26T08:57:16.645Z,29.00
2022-08-26T08:59:53.437Z,29.10
2022-08-26T09:02:32.835Z,29.40
2022-08-26T09:05:15.405Z,29.70
2022-08-26T09:07:49.269Z,29.60
2022-08-26T09:10:33.676Z,29.60
2022-08-26T09:13:09.391Z,29.50
2022-08-26T09:15:51.780Z,29.10
2022-08-26T09:18:30.390Z,29.00
2022-08-26T09:21:03.285Z,29.00
2022-08-26T09:23:33.067Z,29.10
2022-08-26T09:26:16.198Z,29.40
2022-08-26T09:28:49.286Z,29.70
2022-08-26T09:31:23.657Z,30.10
2022-08-26T09:34:17.345Z,30.30
2022-08-26T09:36:48.631Z,30.40
2022-08-26T09:39:31.543Z,30.60
2022-08-26T09:42:11.999Z,30.60
2022-08-26T09:45:00.471Z,30.40
2022-08-26T09:47:31.811Z,30.50
2022-08-26T09:50:09.831Z,30.40
2022-08-26T09:52:42.608Z,30.40
2022-08-26T09:55:14.481Z,30.20
2022-08-26T09:57:50.369Z,30.00
2022-08-26T10:00:31.030Z,30.00
2022-08-26T10:03:00.981Z,29.90
2022-08-26T10:05:33.555Z,29.60
2022-08-26T10:08:08.824Z,29.60
2022-08-26T10:10:41.511Z,29.50
2022-08-26T10:13:17.761Z,29.30
2022-08-26T10:15:53.687Z,29.10
2022-08-26T10:18:26.671Z,29.00
2022-08-26T10:21:04.061Z,28.60
2022-08-26T10:26:20.786Z,28.40
2022-08-26T10:28:53.526Z,28.50
2022-08-26T10:31:29.454Z,28.60
2022-08-26T10:34:00.472Z,28.70
2022-08-26T10:37:14.701Z,28.70
2022-08-26T10:39:46.269Z,28.80
2022-08-26T10:42:23.683Z,28.90
2022-08-26T10:44:55.117Z,28.90
2022-08-26T10:47:36.400Z,29.00
2022-08-26T10:50:06.621Z,29.20
2022-08-26T10:52:52.483Z,29.30
2022-08-26T10:55:28.522Z,29.20
2022-08-26T10:58:06.594Z,29.00
2022-08-26T11:01:00.525Z,29.10
2022-08-26T11:03:36.698Z,29.10
2022-08-26T11:06:22.937Z,28.90
2022-08-26T11:08:52.755Z,28.50
2022-08-26T11:11:54.141Z,27.80
2022-08-26T11:14:41.082Z,27.40
2022-08-26T11:18:07.665Z,26.80
2022-08-26T11:20:41.983Z,26.30
2022-08-26T11:23:50.776Z,25.80
2022-08-26T11:26:43.161Z,25.50
2022-08-26T11:29:13.299Z,25.30
2022-08-26T11:31:56.189Z,25.30
2022-08-26T11:34:52.611Z,25.20
2022-08-26T11:37:27.111Z,25.10
2022-08-26T11:39:57.199Z,25.00
2022-08-26T11:42:32.498Z,24.80
2022-08-26T11:45:05.557Z,24.60
2022-08-26T11:47:34.121Z,24.40
2022-08-26T11:50:14.527Z,24.20
2022-08-26T11:52:52.529Z,24.20
2022-08-26T11:55:23.222Z,24.20
2022-08-26T11:57:54.676Z,24.20
2022-08-26T12:00:24.911Z,24.00
2022-08-26T12:02:54.723Z,23.90
2022-08-26T12:05:29.587Z,23.80
2022-08-26T12:08:10.235Z,23.90
2022-08-26T12:10:40.162Z,24.00
2022-08-26T12:13:09.607Z,24.10
2022-08-26T12:15:38.553Z,24.10
2022-08-26T12:18:29.283Z,24.00
2022-08-26T12:21:01.468Z,23.90
2022-08-26T12:23:43.330Z,23.90
2022-08-26T12:26:14.998Z,23.80
2022-08-26T12:28:44.845Z,23.50
2022-08-26T12:31:13.543Z,23.10
2022-08-26T12:33:45.579Z,22.70
2022-08-26T12:36:14.998Z,22.40
2022-08-26T12:38:44.582Z,22.00
2022-08-26T12:41:12.661Z,22.00
2022-08-26T12:43:43.571Z,22.10
2022-08-26T12:46:15.439Z,22.00
2022-08-26T12:48:46.498Z,21.70
2022-08-26T12:51:23.556Z,21.50
2022-08-26T12:54:06.687Z,21.50
2022-08-26T12:56:39.792Z,21.30
2022-08-26T12:59:20.329Z,21.20
2022-08-26T13:01:49.591Z,21.20
2022-08-26T13:04:33.685Z,21.20
2022-08-26T13:07:24.463Z,21.10
2022-08-26T13:09:55.901Z,21.20
2022-08-26T13:12:26.429Z,21.00
2022-08-26T13:14:54.712Z,21.00
2022-08-26T13:17:23.087Z,21.00
2022-08-26T13:19:51.182Z,20.90
2022-08-26T13:22:24.322Z,20.60
2022-08-26T13:24:56.819Z,20.50
2022-08-26T13:27:27.363Z,20.50
2022-08-26T13:29:57.219Z,20.60
2022-08-26T13:32:27.362Z,20.20
2022-08-26T13:34:57.508Z,20.20
2022-08-26T13:37:34.712Z,20.20
2022-08-26T13:40:07.996Z,20.20
2022-08-26T13:42:36.137Z,20.20
2022-08-26T13:45:04.576Z,20.20
2022-08-26T13:47:32.796Z,20.10
2022-08-26T13:50:01.104Z,20.00
2022-08-26T13:52:30.637Z,20.00
2022-08-26T13:54:59.360Z,20.00
2022-08-26T13:57:30.117Z,19.90
2022-08-26T14:00:00.041Z,19.90
2022-08-26T14:02:28.550Z,19.90
2022-08-26T14:04:56.562Z,19.80
2022-08-26T14:07:24.941Z,19.80
2022-08-26T14:09:53.227Z,19.80
2022-08-26T14:12:21.367Z,19.70
2022-08-26T14:14:50.714Z,19.70
2022-08-26T14:17:22.049Z,19.70
2022-08-26T14:19:51.712Z,19.70
2022-08-26T14:22:22.792Z,19.90
2022-08-26T14:24:51.017Z,19.60
2022-08-26T14:27:19.093Z,19.60
2022-08-26T14:29:47.064Z,19.60
2022-08-26T14:32:23.997Z,19.60
2022-08-26T14:34:52.634Z,19.60
2022-08-26T14:37:21.117Z,19.60
2022-08-26T14:39:49.596Z,19.60
2022-08-26T14:42:21.146Z,19.60
2022-08-26T14:44:53.095Z,19.60
2022-08-26T14:47:22.616Z,19.50
2022-08-26T14:49:50.998Z,19.50
2022-08-26T14:52:19.457Z,19.50
2022-08-26T14:54:46.493Z,19.50
2022-08-26T14:57:15.241Z,19.40
2022-08-26T14:59:50.160Z,19.60
2022-08-26T15:02:32.633Z,19.70
2022-08-26T15:05:04.118Z,19.70
2022-08-26T15:07:32.698Z,19.80
2022-08-26T15:10:00.772Z,19.80
2022-08-26T15:12:28.886Z,19.80
2022-08-26T15:14:56.991Z,19.90
2022-08-26T15:17:25.134Z,19.90
2022-08-26T15:19:53.664Z,20.00
2022-08-26T15:22:23.248Z,20.00
2022-08-26T15:24:53.604Z,20.10
2022-08-26T15:27:22.228Z,20.20
2022-08-26T15:29:50.369Z,20.10
2022-08-26T15:32:18.399Z,20.20
2022-08-26T15:34:46.760Z,20.20
2022-08-26T15:37:14.779Z,20.20
2022-08-26T15:39:44.266Z,20.30
2022-08-26T15:42:12.167Z,20.30
2022-08-26T15:44:44.723Z,20.30
2022-08-26T15:47:13.852Z,20.40
2022-08-26T15:49:42.218Z,20.40
2022-08-26T15:52:10.334Z,20.40
2022-08-26T15:54:39.650Z,20.40
2022-08-26T15:57:12.393Z,20.50
2022-08-26T15:59:41.685Z,20.40
2022-08-26T16:02:09.895Z,20.30
2022-08-26T16:04:38.233Z,20.30
2022-08-26T16:07:06.467Z,20.40
2022-08-26T16:09:34.526Z,20.30
2022-08-26T16:12:02.834Z,20.40
2022-08-26T16:14:32.495Z,20.30
2022-08-26T16:17:00.459Z,20.30
2022-08-26T16:19:28.430Z,20.40
2022-08-26T16:21:56.659Z,20.40
2022-08-26T16:24:29.760Z,20.40
2022-08-26T16:26:58.731Z,20.30
2022-08-26T16:29:26.963Z,20.40
2022-08-26T16:31:56.570Z,20.40
2022-08-26T16:34:25.000Z,20.40
2022-08-26T16:36:53.508Z,20.40
2022-08-26T16:39:21.624Z,20.40
2022-08-26T16:41:50.114Z,20.40
2022-08-26T16:44:19.208Z,20.30
2022-08-26T16:46:47.136Z,20.40
2022-08-26T16:49:16.862Z,20.30
2022-08-26T16:51:45.387Z,20.30
2022-08-26T16:54:13.395Z,20.20
2022-08-26T16:56:41.529Z,20.20
2022-08-26T16:59:11.596Z,20.20
2022-08-26T17:01:39.826Z,20.20
2022-08-26T17:04:07.934Z,20.20
2022-08-26T17:06:37.311Z,20.10
2022-08-26T17:09:05.543Z,20.10
2022-08-26T17:11:33.647Z,20.10
2022-08-26T17:14:01.787Z,20.10
2022-08-26T17:16:29.829Z,20.10
2022-08-26T17:18:58.317Z,20.00
2022-08-26T17:21:28.519Z,20.00
2022-08-26T17:23:57.852Z,20.00
2022-08-26T17:26:26.459Z,20.00
2022-08-26T17:28:54.954Z,20.00
2022-08-26T17:31:24.431Z,19.90
2022-08-26T17:33:53.780Z,20.20
2022-08-26T17:36:23.249Z,19.90
2022-08-26T17:38:58.407Z,19.80
2022-08-26T17:41:27.505Z,19.70
2022-08-26T17:43:55.662Z,19.90
2022-08-26T17:46:24.631Z,19.80
2022-08-26T17:48:52.972Z,19.80
2022-08-26T17:51:21.939Z,19.70
2022-08-26T17:53:51.060Z,19.70
2022-08-26T17:56:25.584Z,19.70
2022-08-26T17:58:54.645Z,19.60
2022-08-26T18:01:26.825Z,19.60
2022-08-26T18:04:00.181Z,19.60
2022-08-26T18:06:30.841Z,19.80
2022-08-26T18:08:59.317Z,19.50
2022-08-26T18:11:29.546Z,19.50
2022-08-26T18:13:57.864Z,19.40
2022-08-26T18:16:25.924Z,19.30
2022-08-26T18:18:54.483Z,19.40
2022-08-26T18:21:24.801Z,19.20
2022-08-26T18:23:54.061Z,19.30
2022-08-26T18:26:24.185Z,19.20
2022-08-26T18:28:54.130Z,19.20
2022-08-26T18:31:22.654Z,19.20
2022-08-26T18:33:50.828Z,19.10
2022-08-26T18:36:20.102Z,19.10
2022-08-26T18:38:50.691Z,19.00
2022-08-26T18:41:20.791Z,19.00
2022-08-26T18:43:50.396Z,19.00
2022-08-26T18:46:22.924Z,19.00
2022-08-26T18:48:51.407Z,18.90
2022-08-26T18:51:21.332Z,18.90
2022-08-26T18:53:49.310Z,18.90
2022-08-26T18:56:18.683Z,18.80
2022-08-26T18:58:47.088Z,18.80
2022-08-26T19:01:16.518Z,18.80
2022-08-26T19:03:46.829Z,18.70
2022-08-26T19:06:16.776Z,18.70
2022-08-26T19:08:45.359Z,18.70
2022-08-26T19:11:31.740Z,18.70
2022-08-26T19:14:07.526Z,18.60
2022-08-26T19:16:35.801Z,18.60
2022-08-26T19:19:06.265Z,18.70
2022-08-26T19:21:35.463Z,18.60
2022-08-26T19:24:06.086Z,18.50
2022-08-26T19:26:34.438Z,18.50
2022-08-26T19:29:03.162Z,18.50
2022-08-26T19:31:31.359Z,18.50
2022-08-26T19:33:59.933Z,18.60
2022-08-26T19:36:29.790Z,18.50
2022-08-26T19:38:58.170Z,18.50
2022-08-26T19:41:37.224Z,18.50
2022-08-26T19:44:08.754Z,18.50
2022-08-26T19:49:05.550Z,18.50
2022-08-26T19:51:38.655Z,18.60
2022-08-26T19:54:06.866Z,18.60
2022-08-26T19:56:35.204Z,18.70
2022-08-26T19:59:03.318Z,18.70
2022-08-26T20:01:31.866Z,18.70
2022-08-26T20:04:00.232Z,18.70
2022-08-26T20:06:28.336Z,18.70
2022-08-26T20:08:58.063Z,18.70
2022-08-26T20:11:26.591Z,18.70
2022-08-26T20:13:55.325Z,18.70
2022-08-26T20:16:23.479Z,18.80
2022-08-26T20:19:08.902Z,18.80
2022-08-26T20:21:39.394Z,18.80
2022-08-26T20:24:11.757Z,18.80
2022-08-26T20:26:42.147Z,18.80
2022-08-26T20:29:11.078Z,18.80
2022-08-26T20:31:39.436Z,18.80
2022-08-26T20:34:08.093Z,18.70
2022-08-26T20:36:36.432Z,18.70
2022-08-26T20:39:05.266Z,18.70
2022-08-26T20:41:34.727Z,18.70
2022-08-26T20:44:03.193Z,18.70
2022-08-26T20:46:31.514Z,18.70
2022-08-26T20:48:59.436Z,18.70
2022-08-26T20:51:29.311Z,18.70
2022-08-26T20:53:57.329Z,18.70
2022-08-26T20:56:25.727Z,18.70
2022-08-26T20:58:58.769Z,18.70
2022-08-26T21:01:30.650Z,18.70
2022-08-26T21:03:58.867Z,18.70
2022-08-26T21:06:27.006Z,18.70
2022-08-26T21:08:55.475Z,18.70
2022-08-26T21:11:25.331Z,18.60
2022-08-26T21:14:16.727Z,18.70
2022-08-26T21:16:44.022Z,18.70
2022-08-26T21:19:15.229Z,18.50
2022-08-26T21:21:44.634Z,18.70
2022-08-26T21:24:13.455Z,18.70
2022-08-26T21:26:41.696Z,18.70
2022-08-26T21:29:11.234Z,18.70
2022-08-26T21:31:45.058Z,18.70
2022-08-26T21:34:14.661Z,18.70
2022-08-26T21:36:42.586Z,18.70
2022-08-26T21:39:12.210Z,18.60
2022-08-26T21:41:41.553Z,18.50
2022-08-26T21:44:11.609Z,18.70
2022-08-26T21:46:39.640Z,18.70
2022-08-26T21:49:09.586Z,18.70
2022-08-26T21:51:39.544Z,18.70
2022-08-26T21:54:11.260Z,18.80
2022-08-26T21:56:44.311Z,18.70
2022-08-26T21:59:15.193Z,18.70
2022-08-26T22:01:43.281Z,18.70
2022-08-26T22:04:11.968Z,18.70
2022-08-26T22:06:44.998Z,18.70
2022-08-26T22:09:14.694Z,18.80
2022-08-26T22:11:43.390Z,18.80
2022-08-26T22:14:13.536Z,18.80
2022-08-26T22:16:41.581Z,18.70
2022-08-26T22:19:18.116Z,18.70
2022-08-26T22:21:46.433Z,18.70
2022-08-26T22:24:14.675Z,18.70
2022-08-26T22:26:43.379Z,18.70
2022-08-26T22:29:13.029Z,18.70
2022-08-26T22:31:41.759Z,18.60
2022-08-26T22:34:12.004Z,18.60
2022-08-26T22:36:44.286Z,18.60
2022-08-26T22:39:13.870Z,18.60
2022-08-26T22:41:43.189Z,18.50
2022-08-26T22:44:13.284Z,18.50
2022-08-26T22:46:42.322Z,18.50
2022-08-26T22:49:12.597Z,18.50
2022-08-26T22:51:40.854Z,18.50
2022-08-26T22:54:09.044Z,18.40
2022-08-26T22:56:37.783Z,18.50
2022-08-26T22:59:06.874Z,18.50
2022-08-26T23:01:38.490Z,18.40
2022-08-26T23:04:08.192Z,18.50
2022-08-26T23:06:37.613Z,18.50
2022-08-26T23:09:06.703Z,18.50
2022-08-26T23:11:35.776Z,18.50
2022-08-26T23:14:06.661Z,18.50
2022-08-26T23:16:39.383Z,18.60
2022-08-26T23:19:08.731Z,18.40
2022-08-26T23:21:36.929Z,18.60
2022-08-26T23:24:05.721Z,18.50
2022-08-26T23:26:34.354Z,18.50
2022-08-26T23:29:02.992Z,18.50
2022-08-26T23:31:31.448Z,18.40
2022-08-26T23:34:18.771Z,18.40
2022-08-26T23:36:47.301Z,18.50
2022-08-26T23:39:15.501Z,18.40
2022-08-26T23:41:43.648Z,18.50
2022-08-26T23:44:12.417Z,18.50
2022-08-26T23:46:40.445Z,18.50
2022-08-26T23:49:09.897Z,18.50
2022-08-26T23:51:56.570Z,18.50
2022-08-26T23:54:24.852Z,18.50
2022-08-26T23:56:52.830Z,18.50
2022-08-26T23:59:21.503Z,18.50
